Latest Weather Observations for Strahan

IDT60801

Issued at 8:31 pm EST Monday 31 August 2015 (issued every 30 minutes, with the page automatically refreshed every 10 minutes)

About weather observations | Map of weather stations | Latest weather observations for TAS | Other Formats
Station Details ID: 097072 Name: STRAHAN AERODROME Lat: -42.16 Lon: 145.29 Height: 21.0 m
Data from the previous 72 hours. | See also: Recent months at Strahan
Date/Time
EST
Temp
°C
App
Temp
°C
Dew
Point
Rel
Hum
%
Delta-T
°C
Wind Press
QNH
hPa
Press
MSL
hPa
Rain
since 9 am
mm
Dir
 
Spd
km/h
Gust
km/h
Spd
kts
Gust
kts
31/08:30pm 3.8 1.1 2.5 91 0.5 ENE 6 7 3 4 1018.7 1018.7 0.0
31/08:00pm 3.7 0.9 2.1 89 0.6 ENE 6 7 3 4 1018.6 1018.6 0.0
31/07:30pm 4.8 2.1 2.7 86 0.9 E 6 6 3 3 1018.7 1018.7 0.0
31/07:00pm 5.7 2.9 2.9 82 1.2 ESE 7 9 4 5 1018.8 1018.8 0.0
31/06:30pm 7.2 3.9 4.3 82 1.3 S 11 13 6 7 1018.7 1018.7 0.0
31/06:00pm 7.3 4.4 2.8 73 1.9 SSW 7 11 4 6 1018.7 1018.7 0.0
31/05:30pm 9.2 6.4 3.4 67 2.5 SW 7 9 4 5 1018.7 1018.7 0.0
31/05:00pm 10.5 7.3 3.3 61 3.1 SW 9 11 5 6 1018.5 1018.5 0.0
31/04:30pm 11.1 7.4 2.4 55 3.7 W 11 15 6 8 1018.7 1018.7 0.0
31/04:00pm 11.6 8.4 2.9 55 3.8 W 9 15 5 8 1018.8 1018.8 0.0
31/03:30pm 11.8 7.8 3.1 55 3.8 W 13 17 7 9 1018.9 1018.9 0.0
31/03:00pm 12.1 8.0 4.1 58 3.6 W 15 20 8 11 1019.2 1019.2 0.0
31/02:30pm 12.2 7.3 4.2 58 3.6 WNW 19 24 10 13 1019.4 1019.4 0.0
31/02:00pm 11.8 6.8 3.6 57 3.6 WNW 19 24 10 13 1019.5 1019.5 0.0
31/01:30pm 12.0 7.2 4.5 60 3.4 WNW 19 26 10 14 1019.8 1019.8 0.0
31/01:00pm 12.2 7.8 4.7 60 3.4 NW 17 22 9 12 1020.0 1020.0 0.0
31/12:30pm 10.9 7.7 3.2 59 3.4 N 9 13 5 7 1020.4 1020.4 0.0
31/12:00pm 10.6 8.1 3.6 62 3.1 W 6 9 3 5 1020.8 1020.8 0.0
31/11:30am 11.3 8.3 4.1 61 3.2 NNW 9 15 5 8 1020.9 1020.9 0.0
31/11:00am 11.1 8.7 5.4 68 2.6 ENE 7 11 4 6 1021.0 1021.0 0.0
31/10:30am 9.2 6.6 4.2 71 2.2 E 7 11 4 6 1021.2 1021.2 0.0
31/10:00am 8.8 5.8 4.0 72 2.1 ENE 9 13 5 7 1021.3 1021.3 0.0
31/09:30am 6.6 4.0 3.2 79 1.4 ENE 6 9 3 5 1021.5 1021.5 0.0
31/09:00am 6.0 3.6 4.3 89 0.7 E 6 9 3 5 1021.6 1021.6 0.0
31/08:30am 4.3 2.8 2.8 90 0.6 CALM 0 0 0 0 1021.6 1021.6 0.0
31/08:00am 3.1 1.3 1.5 89 0.6 CALM 0 0 0 0 1021.5 1021.5 0.0
31/07:30am 1.7 -1.4 0.1 89 0.6 ENE 6 6 3 3 1021.5 1021.5 0.0
31/07:00am 1.1 -2.3 -0.7 88 0.6 NNE 7 11 4 6 1021.2 1021.2 0.0
31/06:30am 1.5 -1.8 0.0 90 0.5 NNE 7 11 4 6 1021.0 1021.0 0.0
31/06:00am 0.5 -2.8 -1.4 87 0.7 ENE 6 9 3 5 1021.0 1021.0 0.0
31/05:30am 2.2 -1.0 0.6 89 0.6 NE 7 9 4 5 1021.1 1021.1 0.0
31/05:00am 1.2 -2.2 -0.6 88 0.6 NE 7 7 4 4 1021.3 1021.3 0.0
31/04:30am 1.7 -1.4 0.4 91 0.5 NE 6 7 3 4 1021.2 1021.2 0.0
31/04:00am 1.9 -1.2 0.4 90 0.6 NNE 6 7 3 4 1021.1 1021.1 0.0
31/03:30am 2.2 -1.0 0.7 90 0.6 NE 7 9 4 5 1021.2 1021.2 0.0
31/03:00am 2.3 -0.8 1.1 92 0.5 NE 7 9 4 5 1021.4 1021.4 0.0
31/02:30am 1.9 -1.1 0.9 93 0.4 ENE 6 7 3 4 1021.9 1021.9 0.0
31/02:00am 1.8 -1.8 0.5 91 0.5 NE 9 13 5 7 1022.3 1022.3 0.0
31/01:30am 1.8 -1.4 0.8 93 0.4 NNE 7 11 4 6 1022.4 1022.4 0.0
31/01:00am 1.2 -1.9 0.2 93 0.4 ENE 6 7 3 4 1022.5 1022.5 0.0
31/12:30am 1.4 -1.7 0.4 93 0.4 ENE 6 9 3 5 1022.5 1022.5 0.0
31/12:00am 1.3 -1.0 0.1 92 0.4 E 2 7 1 4 1022.6 1022.6 0.0
 
Date/Time
EST
Temp
°C
App
Temp
°C
Dew
Point
Rel
Hum
%
Delta-T
°C
Wind Press
QNH
hPa
Press
MSL
hPa
Rain
since 9 am
mm
Dir
 
Spd
km/h
Gust
km/h
Spd
kts
Gust
kts
30/11:30pm 2.2 0.0 1.2 93 0.4 SE 2 7 1 4 1022.7 1022.7 0.0
30/11:00pm 3.4 0.5 2.5 94 0.4 ESE 7 11 4 6 1022.7 1022.7 0.0
30/10:30pm 3.3 0.4 2.4 94 0.4 E 7 13 4 7 1022.9 1022.9 0.0
30/10:00pm 3.1 -0.3 2.1 93 0.4 ESE 9 11 5 6 1023.0 1023.0 0.0
30/09:30pm 3.5 -0.6 2.3 92 0.5 SE 13 13 7 7 1023.1 1023.1 0.0
30/09:00pm 4.6 2.0 3.1 90 0.6 E 6 7 3 4 1023.1 1023.1 0.0
30/08:30pm 5.4 1.5 3.4 87 0.8 SE 13 17 7 9 1023.1 1023.1 0.0
30/08:00pm 6.8 2.4 4.6 86 1.0 SSE 17 20 9 11 1023.0 1023.0 0.0
30/07:30pm 7.2 2.8 5.0 86 1.0 SE 17 24 9 13 1022.8 1022.8 0.0
30/07:00pm 7.2 3.3 5.2 87 0.9 SE 15 24 8 13 1022.7 1022.7 0.0
30/06:30pm 7.5 3.2 5.1 85 1.1 SSE 17 24 9 13 1022.6 1022.6 0.0
30/06:00pm 8.3 4.3 5.1 80 1.4 SSE 15 20 8 11 1022.6 1022.6 0.0
30/05:30pm 9.2 4.9 5.2 76 1.8 S 17 24 9 13 1022.5 1022.5 0.0
30/05:00pm 10.2 5.4 5.4 72 2.2 S 20 30 11 16 1022.5 1022.5 0.0
30/04:30pm 10.9 5.3 5.2 68 2.6 S 24 32 13 17 1022.6 1022.6 0.0
30/04:00pm 11.7 6.4 5.1 64 3.0 SSW 22 32 12 17 1022.8 1022.8 0.0
30/03:30pm 12.5 8.0 4.0 56 3.8 SSE 17 26 9 14 1022.9 1022.9 0.0
30/03:00pm 12.2 7.1 3.9 57 3.7 SSE 20 26 11 14 1022.9 1022.9 0.0
30/02:30pm 12.7 7.8 4.2 56 3.9 SSE 19 24 10 13 1022.9 1022.9 0.0
30/02:00pm 12.8 7.7 4.3 56 3.8 SSE 20 28 11 15 1023.2 1023.2 0.0
30/01:30pm 12.4 7.2 3.6 55 3.9 SSE 20 28 11 15 1023.4 1023.4 0.0
30/01:00pm 11.6 5.3 3.9 59 3.4 SSE 26 32 14 17 1023.8 1023.8 0.0
30/12:30pm 11.6 5.2 3.4 57 3.6 SSE 26 33 14 18 1024.3 1024.3 0.0
30/12:00pm 11.3 5.3 3.3 58 3.5 SSE 24 33 13 18 1024.9 1024.9 0.0
30/11:30am 11.1 5.6 3.9 61 3.2 SSE 22 30 12 16 1025.5 1025.5 0.0
30/11:00am 10.6 5.5 4.1 64 2.9 SE 20 28 11 15 1025.8 1025.8 0.0
30/10:30am 9.5 3.5 3.3 65 2.7 SSE 24 33 13 18 1026.2 1026.2 0.0
30/10:00am 9.0 2.6 3.4 68 2.4 SSE 26 33 14 18 1026.2 1026.2 0.0
30/09:30am 8.5 3.0 3.8 72 2.0 SSE 22 30 12 16 1026.5 1026.5 0.0
30/09:00am 7.6 2.9 3.3 74 1.8 SSE 17 22 9 12 1026.5 1026.5 0.0
30/08:30am 6.9 3.4 3.7 80 1.4 SE 11 13 6 7 1026.4 1026.4 0.0
30/08:00am 5.2 2.4 3.4 88 0.7 ESE 7 9 4 5 1026.3 1026.3 0.0
30/07:30am 3.8 0.2 2.8 93 0.4 ENE 11 13 6 7 1026.2 1026.2 0.0
30/07:00am 2.8 -1.4 1.6 92 0.5 SE 13 17 7 9 1026.1 1026.1 0.0
30/06:30am 3.5 -0.9 2.5 93 0.4 SSE 15 17 8 9 1026.2 1026.2 0.0
30/06:00am 3.0 -1.2 1.8 92 0.5 SE 13 17 7 9 1026.0 1026.0 0.0
30/05:30am 2.9 -1.7 1.7 92 0.5 ESE 15 17 8 9 1025.9 1025.9 0.0
30/05:00am 3.3 -1.6 2.1 92 0.5 SE 17 19 9 10 1025.9 1025.9 0.0
30/04:30am 3.1 -1.9 1.6 90 0.6 ESE 17 20 9 11 1025.8 1025.8 0.0
30/04:00am 4.2 -0.6 2.4 88 0.7 SE 17 20 9 11 1025.7 1025.7 0.0
30/03:30am 4.9 0.5 2.6 85 0.9 SSE 15 20 8 11 1025.8 1025.8 0.0
30/03:00am 5.1 0.7 2.6 84 1.0 SSE 15 19 8 10 1025.9 1025.9 0.0
30/02:30am 5.5 1.0 2.0 78 1.4 SE 15 20 8 11 1025.9 1025.9 0.0
30/02:00am 6.8 1.6 2.5 74 1.8 SE 19 24 10 13 1026.3 1026.3 0.0
30/01:30am 6.5 2.1 2.6 76 1.6 SE 15 24 8 13 1026.8 1026.8 0.0
30/01:00am 6.7 2.7 3.0 77 1.5 SE 13 17 7 9 1027.0 1027.0 0.0
30/12:30am 7.0 3.0 2.9 75 1.7 SE 13 20 7 11 1027.1 1027.1 0.0
30/12:00am 7.3 2.5 2.6 72 1.9 SSE 17 24 9 13 1027.1 1027.1 0.0
 
Date/Time
EST
Temp
°C
App
Temp
°C
Dew
Point
Rel
Hum
%
Delta-T
°C
Wind Press
QNH
hPa
Press
MSL
hPa
Rain
since 9 am
mm
Dir
 
Spd
km/h
Gust
km/h
Spd
kts
Gust
kts
29/11:30pm 7.3 1.9 2.4 71 2.0 SE 20 28 11 15 1027.1 1027.1 0.0
29/11:00pm 7.5 1.7 2.4 70 2.1 SSE 22 32 12 17 1027.3 1027.3 0.0
29/10:30pm 7.4 1.7 2.7 72 2.0 SSE 22 30 12 16 1027.4 1027.4 0.0
29/10:00pm 7.6 2.5 2.9 72 2.0 SSE 19 30 10 16 1027.4 1027.4 0.0
29/09:30pm 7.9 1.4 2.8 70 2.1 SSE 26 37 14 20 1027.2 1027.2 0.0
29/09:00pm 7.8 2.1 2.7 70 2.1 SSE 22 35 12 19 1027.1 1027.1 0.0
29/08:30pm 7.8 2.1 3.1 72 2.0 SSE 22 33 12 18 1026.9 1026.9 0.0
29/08:00pm 7.8 2.1 3.1 72 2.0 SSE 22 32 12 17 1026.6 1026.6 0.0
29/07:30pm 8.1 2.6 3.8 74 1.9 SSE 22 35 12 19 1026.4 1026.4 0.0
29/07:00pm 8.1 2.3 4.5 78 1.6 SSE 24 35 13 19 1025.9 1025.9 0.0
29/06:30pm 8.1 2.3 4.3 77 1.7 SSE 24 32 13 17 1025.4 1025.4 0.0
29/06:00pm 8.1 2.2 4.1 76 1.7 SSE 24 35 13 19 1025.1 1025.1 0.0
29/05:30pm 8.5 2.7 4.3 75 1.8 SSE 24 35 13 19 1025.1 1025.1 0.0
29/05:00pm 9.2 3.9 4.8 74 2.0 SSE 22 33 12 18 1024.9 1024.9 0.0
29/04:30pm 9.3 3.2 4.7 73 2.0 SSE 26 39 14 21 1024.7 1024.7 0.0
29/04:00pm 9.9 3.0 4.7 70 2.3 S 30 41 16 22 1024.6 1024.6 0.0
29/03:30pm 10.4 2.6 4.8 68 2.5 SSE 35 48 19 26 1024.6 1024.6 0.0
29/03:00pm 10.3 3.0 4.5 67 2.6 SSE 32 46 17 25 1024.5 1024.5 0.0
29/02:30pm 10.7 3.3 4.8 67 2.7 S 33 48 18 26 1024.5 1024.5 0.0
29/02:00pm 11.0 4.6 5.3 68 2.6 S 28 39 15 21 1024.3 1024.3 0.0
29/01:36pm 11.8 5.1 5.7 66 2.8 S 30 48 16 26 1024.4 1024.4 0.0
29/01:30pm 11.6 5.4 6.1 69 2.6 S 28 41 15 22 1024.4 1024.4 0.0
29/01:00pm 11.4 4.8 6.1 70 2.5 S 30 39 16 21 1024.6 1024.6 0.0
29/12:30pm 11.8 5.8 7.1 73 2.3 SSE 28 41 15 22 1024.7 1024.7 0.0
29/12:00pm 12.1 5.7 6.8 70 2.5 S 30 43 16 23 1024.9 1024.9 0.0
29/11:30am 11.1 4.9 6.3 72 2.3 S 28 41 15 22 1025.1 1025.1 0.0
29/11:00am 11.1 5.0 6.8 75 2.0 S 28 39 15 21 1025.1 1025.1 0.0
29/10:30am 10.0 4.6 7.9 87 1.0 S 26 35 14 19 1025.0 1025.0 0.0
29/10:00am 10.7 4.1 6.1 73 2.1 SSE 30 46 16 25 1024.9 1024.9 0.0
29/09:57am 10.7 4.5 6.1 73 2.1 SSE 28 46 15 25 1024.9 1024.9 0.0
29/09:30am 10.7 5.0 6.6 76 1.9 SSE 26 43 14 23 1024.6 1024.6 0.0
29/09:01am 9.7 3.4 5.9 77 1.7 SSE 28 46 15 25 1024.4 1024.4 0.0
29/09:00am 9.7 3.1 5.9 77 1.7 SSE 30 46 16 25 1024.4 1024.4 1.6
29/08:57am 10.0 3.8 6.2 77 1.8 SSE 28 46 15 25 1024.4 1024.4 1.6
29/08:30am 9.7 5.2 7.0 83 1.3 SSE 20 30 11 16 1024.3 1024.3 1.6
29/08:00am 8.7 3.0 6.5 86 1.0 S 26 37 14 20 1023.8 1023.8 1.6
29/07:41am 8.6 2.4 6.2 85 1.1 S 28 46 15 25 1023.4 1023.4 1.6
29/07:30am 8.5 2.7 6.3 86 1.0 S 26 39 14 21 1023.3 1023.3 1.6
29/07:00am 8.5 2.4 6.5 87 0.9 S 28 46 15 25 1023.1 1023.1 1.6
29/06:52am 8.5 2.4 6.6 88 0.9 S 28 46 15 25 1023.0 1023.0 1.6
29/06:36am 8.4 1.5 6.5 88 0.9 S 32 46 17 25 1022.8 1022.8 1.6
29/06:30am 8.4 1.9 6.7 89 0.8 S 30 46 16 25 1022.8 1022.8 1.6
29/06:00am 8.1 2.0 6.7 91 0.6 S 28 43 15 23 1022.6 1022.6 1.6
29/05:32am 7.9 1.1 6.7 92 0.6 S 32 43 17 23 1022.6 1022.6 1.4
29/05:30am 7.9 1.1 6.7 92 0.6 S 32 43 17 23 1022.6 1022.6 1.4
29/05:11am 7.7 0.3 6.6 93 0.5 SSW 35 46 19 25 1022.7 1022.7 1.4
29/05:00am 7.6 0.1 6.5 93 0.5 SSW 35 48 19 26 1022.7 1022.7 1.4
29/04:30am 7.4 0.3 6.3 93 0.5 S 33 48 18 26 1022.8 1022.8 1.4
29/04:14am 7.2 -0.3 6.1 93 0.5 SSW 35 50 19 27 1022.8 1022.8 1.4
29/04:04am 7.0 0.4 5.9 93 0.5 SSW 30 44 16 24 1022.9 1022.9 1.4
29/04:00am 6.9 0.2 5.7 92 0.5 SSW 30 46 16 25 1023.0 1023.0 1.4
29/03:59am 6.9 0.2 5.7 92 0.5 SSW 30 46 16 25 1023.0 1023.0 1.4
29/03:30am 6.9 0.1 5.2 89 0.7 S 30 41 16 22 1023.5 1023.5 1.4
29/03:15am 6.8 -1.1 4.6 86 1.0 S 35 54 19 29 1023.8 1023.8 1.4
29/03:00am 6.7 -0.8 4.7 87 0.9 S 33 46 18 25 1023.9 1023.9 1.4
29/02:30am 6.7 -0.5 5.2 90 0.7 SSW 32 46 17 25 1024.2 1024.2 1.4
29/02:00am 6.6 -0.8 4.9 89 0.7 S 33 52 18 28 1024.4 1024.4 1.2
29/01:49am 6.5 0.0 4.8 89 0.7 S 28 48 15 26 1024.4 1024.4 1.2
29/01:30am 6.4 -0.5 4.7 89 0.7 S 30 43 16 23 1024.6 1024.6 1.0
29/01:00am 6.1 -1.8 4.1 87 0.8 S 35 54 19 29 1024.8 1024.8 0.6
29/12:53am 6.0 -1.4 4.2 88 0.8 SSW 32 54 17 29 1024.9 1024.9 0.6
29/12:30am 6.0 1.1 4.3 89 0.7 S 19 26 10 14 1025.1 1025.1 0.4
29/12:00am 5.8 0.3 4.0 88 0.8 S 22 33 12 18 1025.4 1025.4 0.2
 
Date/Time
EST
Temp
°C
App
Temp
°C
Dew
Point
Rel
Hum
%
Delta-T
°C
Wind Press
QNH
hPa
Press
MSL
hPa
Rain
since 9 am
mm
Dir
 
Spd
km/h
Gust
km/h
Spd
kts
Gust
kts
28/11:30pm 5.4 -0.7 2.8 83 1.1 SSW 24 33 13 18 1025.7 1025.7 0.0
28/11:12pm 5.9 -1.0 2.5 79 1.4 S 28 46 15 25 1026.0 1026.0 0.0
28/11:00pm 5.6 0.5 3.1 84 1.0 SSW 19 28 10 15 1026.1 1026.1 0.0
28/10:30pm 6.5 -0.6 1.4 70 2.0 SSW 28 48 15 26 1026.4 1026.4 0.0
28/10:00pm 6.5 -0.7 0.8 67 2.2 SSW 28 43 15 23 1026.7 1026.7 0.0
28/09:30pm 5.7 0.1 1.1 72 1.8 SSW 20 26 11 14 1026.9 1026.9 0.0
28/09:00pm 5.5 0.5 1.1 73 1.7 SSW 17 24 9 13 1027.3 1027.3 0.0

Other Formats:

Comma delimited format used in spreadsheet applications
http://www.bom.gov.au/fwo/IDT60801/IDT60801.94956.axf

JavaScript Object Notation format (JSON) in row-major order
http://www.bom.gov.au/fwo/IDT60801/IDT60801.94956.json